createdAt,value
2019-05-15T00:00:41.405Z,1.30
2019-05-15T00:03:10.400Z,1.30
2019-05-15T00:16:29.054Z,1.53
2019-05-15T00:18:59.094Z,1.40
2019-05-15T00:21:28.786Z,1.53
2019-05-15T00:23:58.633Z,1.60
2019-05-15T00:26:29.973Z,1.70
2019-05-15T00:29:11.630Z,1.50
2019-05-15T00:31:29.704Z,1.40
2019-05-15T00:33:59.371Z,1.57
2019-05-15T00:36:28.636Z,1.50
2019-05-15T00:38:59.075Z,1.83
2019-05-15T00:41:28.297Z,1.87
2019-05-15T00:43:58.459Z,1.80
2019-05-15T00:46:29.039Z,1.73
2019-05-15T00:48:59.221Z,1.90
2019-05-15T00:51:28.560Z,1.90
2019-05-15T00:53:58.923Z,1.50
2019-05-15T00:56:28.468Z,1.57
2019-05-15T00:58:58.778Z,1.57
2019-05-15T01:01:28.633Z,1.70
2019-05-15T01:03:58.571Z,1.60
2019-05-15T01:06:28.485Z,1.70
2019-05-15T01:08:58.856Z,2.00
2019-05-15T01:11:28.453Z,1.70
2019-05-15T01:13:58.508Z,1.60
2019-05-15T01:16:28.133Z,1.63
2019-05-15T01:18:58.628Z,1.50
2019-05-15T01:21:27.882Z,1.50
2019-05-15T01:23:58.808Z,1.60
2019-05-15T01:26:28.220Z,1.60
2019-05-15T01:28:58.373Z,1.90
2019-05-15T01:31:28.515Z,1.63
2019-05-15T01:33:58.332Z,1.50
2019-05-15T01:36:28.831Z,1.70
2019-05-15T01:38:58.419Z,1.53
2019-05-15T01:41:28.154Z,1.83
2019-05-15T01:43:58.152Z,1.60
2019-05-15T01:46:28.598Z,1.53
2019-05-15T01:48:58.574Z,1.83
2019-05-15T01:51:28.572Z,1.70
2019-05-15T01:53:58.439Z,1.80
2019-05-15T01:56:29.343Z,1.57
2019-05-15T01:58:58.084Z,1.60
2019-05-15T02:01:28.334Z,1.60
2019-05-15T02:03:59.002Z,1.80
2019-05-15T02:06:28.464Z,1.63
2019-05-15T02:08:58.756Z,1.60
2019-05-15T02:11:28.891Z,2.10
2019-05-15T02:14:01.021Z,1.73
2019-05-15T02:16:29.821Z,1.73
2019-05-15T02:18:58.634Z,2.00
2019-05-15T02:21:28.867Z,1.97
2019-05-15T02:23:58.801Z,2.00
2019-05-15T02:26:28.315Z,2.10
2019-05-15T02:28:57.595Z,2.20
2019-05-15T02:31:29.860Z,2.20
2019-05-15T02:33:58.991Z,2.00
2019-05-15T02:36:29.320Z,2.10
2019-05-15T02:38:59.649Z,2.17
2019-05-15T02:41:30.726Z,1.77
2019-05-15T02:43:59.546Z,1.73
2019-05-15T02:46:30.064Z,2.10
2019-05-15T02:48:59.321Z,2.00
2019-05-15T02:51:29.878Z,2.23
2019-05-15T02:53:58.831Z,2.30
2019-05-15T02:56:29.291Z,2.20
2019-05-15T02:58:59.899Z,2.07
2019-05-15T03:01:28.869Z,2.13
2019-05-15T03:03:59.623Z,2.40
2019-05-15T03:06:29.825Z,2.13
2019-05-15T03:08:59.697Z,2.10
2019-05-15T03:11:29.457Z,2.30
2019-05-15T03:13:59.282Z,1.93
2019-05-15T03:16:30.292Z,2.07
2019-05-15T03:18:59.853Z,2.00
2019-05-15T03:21:29.635Z,2.03
2019-05-15T03:23:59.398Z,2.57
2019-05-15T03:26:29.938Z,2.40
2019-05-15T03:28:59.190Z,2.40
2019-05-15T03:31:47.840Z,2.40
2019-05-15T03:34:02.706Z,2.20
2019-05-15T03:36:31.838Z,2.23
2019-05-15T03:38:59.912Z,2.17
2019-05-15T03:41:29.865Z,2.30
2019-05-15T03:43:59.649Z,2.23
2019-05-15T03:46:29.282Z,2.20
2019-05-15T03:49:00.569Z,2.60
2019-05-15T03:51:29.607Z,2.13
2019-05-15T03:54:00.333Z,2.20
2019-05-15T03:56:29.707Z,2.30
2019-05-15T03:58:59.752Z,2.37
2019-05-15T04:01:37.967Z,2.40
2019-05-15T04:04:00.022Z,2.37
2019-05-15T04:06:29.834Z,2.30
2019-05-15T04:08:58.843Z,2.50
2019-05-15T04:11:29.378Z,2.40
2019-05-15T04:13:59.365Z,2.20
2019-05-15T04:16:29.667Z,2.67
2019-05-15T04:18:59.343Z,2.50
2019-05-15T04:21:30.330Z,2.80
2019-05-15T04:23:59.761Z,2.07
2019-05-15T04:26:31.572Z,2.50
2019-05-15T04:29:00.459Z,2.50
2019-05-15T04:31:41.174Z,2.80
2019-05-15T04:34:00.227Z,2.53
2019-05-15T04:36:29.818Z,2.53
2019-05-15T04:38:58.804Z,2.50
2019-05-15T04:41:29.908Z,2.43
2019-05-15T04:43:59.743Z,2.40
2019-05-15T04:46:30.005Z,2.53
2019-05-15T04:48:59.706Z,2.47
2019-05-15T04:51:30.502Z,2.47
2019-05-15T04:53:59.820Z,2.50
2019-05-15T04:56:29.442Z,2.50
2019-05-15T04:59:00.038Z,2.67
2019-05-15T05:01:29.424Z,2.50
2019-05-15T05:03:58.986Z,3.27
2019-05-15T05:06:29.417Z,3.03
2019-05-15T05:08:59.650Z,2.73
2019-05-15T05:11:28.856Z,2.70
2019-05-15T05:13:59.093Z,2.90
2019-05-15T05:16:29.525Z,2.80
2019-05-15T05:22:28.225Z,2.77
2019-05-15T05:24:58.467Z,2.60
2019-05-15T05:27:28.827Z,2.63
2019-05-15T05:29:58.681Z,2.17
2019-05-15T05:32:34.613Z,2.80
2019-05-15T05:34:58.903Z,2.80
2019-05-15T05:37:28.072Z,2.67
2019-05-15T05:39:57.706Z,2.60
2019-05-15T05:42:29.009Z,2.90
2019-05-15T05:44:58.226Z,2.80
2019-05-15T05:47:28.809Z,2.60
2019-05-15T05:49:58.269Z,2.80
2019-05-15T05:52:28.006Z,2.70
2019-05-15T05:55:33.698Z,2.50
2019-05-15T05:58:02.527Z,2.27
2019-05-15T06:00:39.198Z,2.20
2019-05-15T06:03:08.896Z,2.30
2019-05-15T06:05:49.147Z,2.60
2019-05-15T06:08:19.669Z,2.43
2019-05-15T06:10:49.660Z,2.37
2019-05-15T06:13:18.986Z,2.20
2019-05-15T06:15:48.783Z,2.10
2019-05-15T06:18:19.620Z,2.73
2019-05-15T06:20:49.771Z,2.10
2019-05-15T06:23:23.153Z,2.13
2019-05-15T06:25:49.651Z,2.27
2019-05-15T06:28:20.076Z,1.90
2019-05-15T06:30:49.226Z,2.43
2019-05-15T06:33:18.853Z,2.20
2019-05-15T06:35:49.011Z,2.30
2019-05-15T06:38:19.302Z,2.30
2019-05-15T06:40:48.943Z,1.93
2019-05-15T06:43:19.196Z,1.70
2019-05-15T06:45:49.265Z,1.80
2019-05-15T06:48:18.699Z,1.33
2019-05-15T06:50:49.034Z,1.53
2019-05-15T06:53:19.110Z,1.47
2019-05-15T06:55:48.818Z,1.60
2019-05-15T06:58:19.007Z,1.63
2019-05-15T07:00:49.236Z,1.50
2019-05-15T07:03:25.159Z,1.40
2019-05-15T07:05:50.603Z,1.33
2019-05-15T07:08:19.935Z,1.40
2019-05-15T07:10:48.972Z,1.30
2019-05-15T07:13:18.477Z,1.40
2019-05-15T07:15:49.573Z,1.30
2019-05-15T07:18:19.905Z,1.10
2019-05-15T07:21:22.768Z,1.10
2019-05-15T07:24:09.239Z,1.23
2019-05-15T07:26:40.749Z,1.30
2019-05-15T07:29:11.605Z,1.20
2019-05-15T07:31:58.614Z,1.10
2019-05-15T07:35:25.742Z,1.30
2019-05-15T07:45:01.992Z,1.27
2019-05-15T07:47:31.832Z,1.50
2019-05-15T07:50:01.041Z,1.27
2019-05-15T07:52:29.982Z,1.20
2019-05-15T07:54:59.382Z,1.33
2019-05-15T07:57:30.250Z,1.40
2019-05-15T07:59:59.038Z,1.40
2019-05-15T08:02:28.544Z,1.50
2019-05-15T08:04:57.701Z,1.23
2019-05-15T08:07:27.898Z,1.50
2019-05-15T08:09:59.292Z,1.50
2019-05-15T08:12:28.355Z,1.20
2019-05-15T08:14:58.262Z,1.33
2019-05-15T08:17:29.719Z,1.20
2019-05-15T08:23:28.436Z,1.37
2019-05-15T08:33:28.243Z,1.43
2019-05-15T08:35:58.896Z,1.40
2019-05-15T08:38:29.014Z,1.30
2019-05-15T08:40:59.181Z,1.30
2019-05-15T08:43:31.342Z,1.37
2019-05-15T08:46:00.479Z,1.50
2019-05-15T08:48:32.781Z,1.40
2019-05-15T08:51:02.408Z,1.30
2019-05-15T08:53:31.451Z,1.40
2019-05-15T08:56:00.492Z,1.67
2019-05-15T08:58:29.436Z,1.70
2019-05-15T09:00:58.903Z,1.70
2019-05-15T09:03:28.656Z,1.40
2019-05-15T09:05:59.003Z,1.47
2019-05-15T09:08:29.293Z,1.63
2019-05-15T09:10:58.907Z,1.90
2019-05-15T09:13:29.227Z,2.10
2019-05-15T09:16:04.393Z,1.57
2019-05-15T09:18:33.605Z,1.90
2019-05-15T09:21:02.684Z,5.77
2019-05-15T09:23:31.501Z,1.40
2019-05-15T09:26:00.531Z,1.23
2019-05-15T09:28:32.605Z,1.20
2019-05-15T09:31:03.809Z,1.10
2019-05-15T09:33:32.664Z,1.10
2019-05-15T09:36:01.651Z,1.10
2019-05-15T09:38:30.743Z,0.83
2019-05-15T09:40:59.709Z,0.93
2019-05-15T09:43:28.952Z,1.17
2019-05-15T09:45:58.552Z,1.20
2019-05-15T09:48:28.649Z,2.00
2019-05-15T09:50:58.708Z,1.30
2019-05-15T09:53:28.768Z,1.20
2019-05-15T09:56:00.042Z,1.00
2019-05-15T09:58:30.224Z,1.20
2019-05-15T10:00:59.675Z,1.20
2019-05-15T10:03:28.769Z,1.10
2019-05-15T10:05:57.891Z,1.10
2019-05-15T10:08:29.216Z,1.37
2019-05-15T10:10:59.378Z,1.20
2019-05-15T10:13:28.976Z,1.50
2019-05-15T10:15:58.616Z,1.70
2019-05-15T10:18:28.359Z,1.20
2019-05-15T10:20:58.126Z,1.20
2019-05-15T10:23:29.103Z,1.30
2019-05-15T10:25:58.856Z,1.10
2019-05-15T10:28:29.274Z,1.30
2019-05-15T10:31:00.007Z,1.10
2019-05-15T10:33:29.760Z,0.93
2019-05-15T10:35:59.159Z,1.10
2019-05-15T10:38:28.594Z,1.00
2019-05-15T10:41:08.187Z,1.07
2019-05-15T10:43:28.731Z,1.30
2019-05-15T10:45:58.752Z,1.10
2019-05-15T10:48:29.228Z,1.20
2019-05-15T10:51:05.776Z,1.10
2019-05-15T10:53:29.647Z,1.20
2019-05-15T10:55:59.715Z,1.07
2019-05-15T10:58:29.361Z,1.30
2019-05-15T11:01:02.028Z,1.10
2019-05-15T11:03:29.853Z,1.20
2019-05-15T11:05:58.887Z,1.00
2019-05-15T11:08:28.973Z,1.00
2019-05-15T11:10:58.578Z,1.00
2019-05-15T11:13:28.866Z,1.00
2019-05-15T11:15:57.952Z,1.00
2019-05-15T11:18:30.510Z,1.10
2019-05-15T11:20:59.343Z,1.10
2019-05-15T11:23:29.270Z,1.00
2019-05-15T11:25:58.355Z,0.97
2019-05-15T11:28:31.548Z,0.93
2019-05-15T11:30:59.473Z,1.13
2019-05-15T11:33:29.196Z,0.90
2019-05-15T11:36:05.398Z,1.00
2019-05-15T11:38:29.143Z,1.03
2019-05-15T11:40:58.136Z,1.10
2019-05-15T11:43:29.230Z,1.10
2019-05-15T11:45:58.920Z,1.20
2019-05-15T11:48:29.801Z,1.00
2019-05-15T11:50:58.521Z,1.10
2019-05-15T11:53:28.412Z,1.10
2019-05-15T11:55:59.867Z,1.00
2019-05-15T11:58:28.386Z,1.07
2019-05-15T12:00:57.959Z,1.00
2019-05-15T12:03:29.072Z,1.00
2019-05-15T12:05:59.695Z,0.90
2019-05-15T12:08:29.429Z,0.90
2019-05-15T12:10:59.522Z,0.93
2019-05-15T12:13:28.464Z,0.90
2019-05-15T12:15:58.936Z,0.80
2019-05-15T12:18:28.682Z,1.10
2019-05-15T12:20:59.591Z,1.00
2019-05-15T12:23:29.175Z,1.03
2019-05-15T12:25:59.738Z,1.00
2019-05-15T12:28:29.565Z,1.10
2019-05-15T12:30:59.835Z,1.00
2019-05-15T12:33:29.256Z,1.30
2019-05-15T12:35:58.498Z,1.20
2019-05-15T12:38:28.931Z,1.10
2019-05-15T13:01:14.772Z,1.30
2019-05-15T13:03:34.180Z,1.30
2019-05-15T13:06:03.264Z,1.10
2019-05-15T13:08:33.497Z,1.20
2019-05-15T13:11:02.674Z,1.10
2019-05-15T13:13:31.647Z,1.10
2019-05-15T13:16:00.481Z,1.00
2019-05-15T13:18:29.393Z,0.70
2019-05-15T13:20:59.495Z,0.90
2019-05-15T13:23:28.758Z,0.93
2019-05-15T13:25:59.255Z,1.30
2019-05-15T13:28:29.074Z,1.30
2019-05-15T13:30:59.520Z,1.03
2019-05-15T13:33:29.037Z,1.17
2019-05-15T13:35:58.588Z,0.83
2019-05-15T13:38:28.874Z,0.90
2019-05-15T13:40:58.903Z,1.10
2019-05-15T13:43:29.067Z,1.00
2019-05-15T13:45:58.464Z,1.00
2019-05-15T13:48:29.268Z,1.00
2019-05-15T13:50:59.046Z,0.90
2019-05-15T13:53:28.089Z,1.00
2019-05-15T13:55:56.855Z,1.07
2019-05-15T13:58:28.020Z,1.20
2019-05-15T14:00:58.834Z,1.17
2019-05-15T14:03:28.433Z,0.90
2019-05-15T14:05:58.642Z,0.90
2019-05-15T14:08:28.861Z,0.90
2019-05-15T14:10:58.354Z,1.10
2019-05-15T14:13:28.778Z,1.00
2019-05-15T14:15:58.298Z,1.40
2019-05-15T14:18:28.648Z,1.10
2019-05-15T14:20:58.376Z,1.00
2019-05-15T14:23:29.543Z,1.00
2019-05-15T14:25:58.988Z,1.20
2019-05-15T14:28:28.969Z,1.10
2019-05-15T14:30:58.624Z,1.17
2019-05-15T14:33:29.168Z,1.10
2019-05-15T14:35:58.315Z,1.20
2019-05-15T14:38:29.106Z,1.10
2019-05-15T14:40:59.094Z,0.87
2019-05-15T14:43:29.329Z,1.07
2019-05-15T14:45:58.811Z,1.20
2019-05-15T14:48:28.235Z,1.30
2019-05-15T14:50:58.427Z,1.13
2019-05-15T14:53:29.481Z,1.00
2019-05-15T14:56:00.260Z,1.10
2019-05-15T14:58:29.439Z,1.20
2019-05-15T15:01:03.489Z,1.20
2019-05-15T15:03:29.070Z,1.40
2019-05-15T15:05:58.816Z,1.57
2019-05-15T15:08:29.239Z,1.23
2019-05-15T15:10:59.411Z,1.60
2019-05-15T15:13:28.951Z,1.40
2019-05-15T15:15:59.075Z,1.57
2019-05-15T15:18:28.405Z,1.57
2019-05-15T15:20:58.003Z,1.43
2019-05-15T15:23:28.321Z,1.40
2019-05-15T15:25:57.915Z,1.30
2019-05-15T15:28:27.016Z,1.10
2019-05-15T15:30:57.914Z,1.00
2019-05-15T15:33:28.827Z,1.00
2019-05-15T15:35:58.065Z,1.00
2019-05-15T15:38:37.599Z,0.80
2019-05-15T15:41:00.232Z,1.10
2019-05-15T15:43:28.865Z,0.80
2019-05-15T15:45:58.188Z,1.07
2019-05-15T15:48:28.532Z,1.10
2019-05-15T15:50:58.663Z,0.70
2019-05-15T15:53:28.577Z,0.60
2019-05-15T15:55:57.579Z,0.87
2019-05-15T15:58:28.855Z,0.80
2019-05-15T16:00:57.053Z,0.80
2019-05-15T16:03:28.461Z,0.90
2019-05-15T16:05:58.100Z,0.80
2019-05-15T16:08:28.535Z,0.60
2019-05-15T16:10:59.013Z,0.63
2019-05-15T16:13:29.211Z,0.73
2019-05-15T16:15:58.369Z,0.63
2019-05-15T16:18:28.939Z,0.70
2019-05-15T16:20:58.067Z,0.63
2019-05-15T16:23:28.252Z,0.70
2019-05-15T16:26:00.609Z,0.80
2019-05-15T16:28:28.967Z,0.60
2019-05-15T16:30:58.569Z,0.70
2019-05-15T16:33:28.292Z,0.70
2019-05-15T16:35:58.120Z,0.80
2019-05-15T16:38:28.430Z,0.67
2019-05-15T16:40:58.381Z,0.70
2019-05-15T16:43:28.606Z,0.70
2019-05-15T16:45:58.742Z,1.27
2019-05-15T16:48:29.327Z,0.67
2019-05-15T16:50:58.668Z,0.80
2019-05-15T16:53:28.983Z,0.70
2019-05-15T16:55:58.790Z,0.90
2019-05-15T16:58:29.640Z,0.73
2019-05-15T17:00:58.622Z,0.70
2019-05-15T17:03:28.875Z,1.00
2019-05-15T17:05:58.745Z,0.70
2019-05-15T17:08:28.903Z,0.70
2019-05-15T17:10:58.770Z,0.80
2019-05-15T17:13:28.765Z,0.60
2019-05-15T17:15:58.397Z,0.60
2019-05-15T17:18:27.540Z,0.60
2019-05-15T17:20:58.865Z,0.60
2019-05-15T17:23:27.720Z,0.90
2019-05-15T17:25:58.163Z,0.70
2019-05-15T17:28:29.075Z,0.80
2019-05-15T17:30:58.351Z,0.70
2019-05-15T17:33:28.932Z,0.67
2019-05-15T17:35:58.227Z,0.60
2019-05-15T17:38:28.674Z,0.80
2019-05-15T17:40:57.988Z,0.70
2019-05-15T17:43:28.747Z,0.80
2019-05-15T17:45:58.273Z,0.70
2019-05-15T17:48:28.949Z,0.70
2019-05-15T17:50:59.189Z,0.80
2019-05-15T17:53:28.775Z,0.60
2019-05-15T17:55:59.355Z,0.80
2019-05-15T17:58:28.811Z,0.80
2019-05-15T18:00:59.439Z,0.83
2019-05-15T18:03:28.967Z,0.73
2019-05-15T18:05:59.126Z,0.80
2019-05-15T18:08:28.702Z,0.70
2019-05-15T18:10:58.695Z,0.70
2019-05-15T18:13:28.679Z,0.70
2019-05-15T18:16:02.764Z,0.70
2019-05-15T18:18:28.476Z,0.80
2019-05-15T18:20:58.148Z,0.80
2019-05-15T18:23:27.420Z,0.90
2019-05-15T18:25:58.435Z,0.90
2019-05-15T18:28:27.498Z,0.80
2019-05-15T18:30:58.566Z,1.00
2019-05-15T18:33:28.020Z,0.70
2019-05-15T18:35:58.116Z,0.80
2019-05-15T18:38:28.127Z,0.60
2019-05-15T18:40:58.318Z,0.60
2019-05-15T18:43:28.886Z,0.60
2019-05-15T18:45:58.714Z,0.60
2019-05-15T18:48:29.001Z,0.70
2019-05-15T18:51:04.477Z,0.60
2019-05-15T18:53:35.171Z,0.50
2019-05-15T18:56:14.238Z,0.77
2019-05-15T18:58:44.472Z,0.60
2019-05-15T19:05:00.135Z,0.50
2019-05-15T19:07:28.999Z,0.70
2019-05-15T19:09:58.014Z,0.60
2019-05-15T19:12:28.251Z,0.90
2019-05-15T19:14:58.876Z,0.70
2019-05-15T19:17:30.321Z,0.70
2019-05-15T19:20:00.220Z,0.73
2019-05-15T19:22:40.334Z,0.97
2019-05-15T19:25:08.813Z,0.80
2019-05-15T19:27:39.440Z,0.83
2019-05-15T19:30:09.172Z,0.90
2019-05-15T19:32:38.796Z,0.60
2019-05-15T19:35:08.992Z,0.67
2019-05-15T19:37:38.622Z,0.80
2019-05-15T19:40:08.997Z,1.00
2019-05-15T19:42:38.595Z,1.00
2019-05-15T19:45:21.712Z,0.73
2019-05-15T19:47:50.504Z,0.70
2019-05-15T19:50:20.225Z,0.70
2019-05-15T19:52:50.426Z,0.70
2019-05-15T19:55:21.733Z,0.60
2019-05-15T19:57:53.364Z,0.80
2019-05-15T20:00:23.110Z,0.70
2019-05-15T20:02:57.608Z,0.60
2019-05-15T20:05:26.056Z,0.70
2019-05-15T20:08:02.647Z,0.70
2019-05-15T20:10:32.019Z,0.60
2019-05-15T20:13:01.440Z,0.60
2019-05-15T20:15:30.423Z,0.83
2019-05-15T20:17:59.850Z,0.90
2019-05-15T20:20:29.251Z,0.80
2019-05-15T20:22:59.803Z,0.80
2019-05-15T20:25:32.936Z,0.90
2019-05-15T20:28:01.831Z,0.97
2019-05-15T20:30:30.966Z,0.80
2019-05-15T20:32:59.974Z,0.70
2019-05-15T20:35:31.598Z,0.90
2019-05-15T20:38:06.116Z,1.03
2019-05-15T20:40:35.419Z,0.70
2019-05-15T20:43:04.299Z,0.70
2019-05-15T20:45:36.728Z,0.77
2019-05-15T20:48:08.986Z,0.77
2019-05-15T20:50:38.675Z,0.80
2019-05-15T20:53:13.408Z,1.00
2019-05-15T20:55:42.830Z,0.90
2019-05-15T20:58:11.892Z,0.93
2019-05-15T21:00:41.177Z,0.80
2019-05-15T21:03:20.738Z,0.70
2019-05-15T21:05:50.308Z,1.03
2019-05-15T21:08:22.597Z,0.80
2019-05-15T21:10:52.156Z,0.77
2019-05-15T21:13:24.936Z,0.77
2019-05-15T21:15:58.530Z,0.87
2019-05-15T21:18:28.931Z,0.70
2019-05-15T21:20:58.070Z,0.73
2019-05-15T21:23:28.508Z,0.80
2019-05-15T21:25:59.322Z,0.87
2019-05-15T21:28:39.187Z,0.80
2019-05-15T21:31:03.933Z,0.77
2019-05-15T21:33:32.951Z,0.80
2019-05-15T21:36:05.071Z,0.83
2019-05-15T21:38:34.063Z,0.70
2019-05-15T21:41:02.856Z,0.80
2019-05-15T21:43:31.746Z,0.70
2019-05-15T21:46:00.652Z,0.80
2019-05-15T21:48:29.753Z,0.70
2019-05-15T21:50:58.707Z,0.83
2019-05-15T21:53:28.758Z,1.07
2019-05-15T21:55:58.846Z,0.90
2019-05-15T21:58:28.394Z,0.83
2019-05-15T22:00:58.572Z,0.90
2019-05-15T22:03:28.541Z,0.90
2019-05-15T22:05:58.262Z,0.90
2019-05-15T22:08:27.910Z,0.90
2019-05-15T22:10:56.835Z,1.03
2019-05-15T22:13:31.141Z,0.90
2019-05-15T22:15:58.765Z,1.23
2019-05-15T22:18:28.081Z,1.00
2019-05-15T22:20:58.564Z,1.00
2019-05-15T22:23:27.929Z,1.00
2019-05-15T22:25:58.409Z,1.00
2019-05-15T22:28:28.195Z,1.03
2019-05-15T22:30:58.385Z,1.10
2019-05-15T22:33:28.353Z,0.90
2019-05-15T22:35:59.247Z,0.80
2019-05-15T22:38:28.536Z,1.00
2019-05-15T22:40:57.387Z,0.90
2019-05-15T22:43:26.267Z,0.90
2019-05-15T22:45:55.117Z,1.20
2019-05-15T22:48:23.992Z,0.90
2019-05-15T22:50:52.785Z,1.20
2019-05-15T22:53:21.561Z,1.20
2019-05-15T22:55:50.785Z,1.00
2019-05-15T22:58:19.727Z,1.10
2019-05-15T23:00:49.104Z,1.10
2019-05-15T23:03:18.976Z,0.83
2019-05-15T23:05:47.796Z,0.97
2019-05-15T23:08:18.408Z,1.10
2019-05-15T23:10:48.583Z,1.00
2019-05-15T23:13:17.873Z,1.00
2019-05-15T23:15:47.703Z,0.90
2019-05-15T23:18:17.859Z,0.93
2019-05-15T23:20:47.864Z,1.23
2019-05-15T23:23:18.163Z,1.00
2019-05-15T23:25:48.574Z,0.80
2019-05-15T23:28:17.476Z,0.90
2019-05-15T23:30:48.405Z,1.13
2019-05-15T23:33:18.822Z,1.00
2019-05-15T23:35:48.600Z,1.20
2019-05-15T23:38:17.522Z,1.00
2019-05-15T23:40:48.343Z,1.10
2019-05-15T23:43:18.920Z,0.93
2019-05-15T23:45:48.385Z,0.90
2019-05-15T23:48:17.264Z,1.00
2019-05-15T23:50:48.451Z,1.23
2019-05-15T23:53:19.691Z,1.03
2019-05-15T23:55:47.164Z,1.00
2019-05-15T23:58:18.669Z,1.10
